Time;durP1;ratioP1;P1;durP2;ratioP2;P2;SDS_P1;SDS_P2;PMS_P1;PMS_P2;Temp;Humidity;BMP_temperature;BMP_pressure;BME280_temperature;BME280_humidity;BME280_pressure;Samples;Min_cycle;Max_cycle;Signal;HPM_P1;HPM_P2
2022/04/27 00:01:02;;;;;;;8.10;7.40;;;4.20;99.90;;;;;;5014575;28;20076;-75
2022/04/27 00:03:28;;;;;;;11.10;8.25;;;4.20;99.90;;;;;;5010871;28;20037;-75
2022/04/27 00:05:54;;;;;;;9.05;7.40;;;4.10;99.90;;;;;;5029230;28;20049;-75
2022/04/27 00:08:19;;;;;;;8.93;7.78;;;4.10;99.90;;;;;;5006158;28;20087;-75
2022/04/27 00:10:45;;;;;;;10.30;8.30;;;4.10;99.90;;;;;;5011823;28;20102;-75
2022/04/27 00:13:15;;;;;;;11.93;8.07;;;4.00;99.90;;;;;;4995321;28;20120;-75
2022/04/27 00:15:41;;;;;;;9.23;8.13;;;4.10;99.90;;;;;;5015008;28;20076;-75
2022/04/27 00:18:07;;;;;;;9.15;8.20;;;4.00;99.90;;;;;;5009551;28;20498;-75
2022/04/27 00:20:32;;;;;;;9.75;8.52;;;3.90;99.90;;;;;;5008966;28;20144;-75
2022/04/27 00:22:58;;;;;;;12.95;9.00;;;4.00;99.90;;;;;;5029141;28;20036;-76
2022/04/27 00:25:24;;;;;;;14.18;9.23;;;3.90;99.90;;;;;;5029129;28;20500;-76
2022/04/27 00:27:49;;;;;;;10.63;8.38;;;3.90;99.90;;;;;;5007077;28;20045;-76
2022/04/27 00:30:15;;;;;;;9.85;8.82;;;3.90;99.90;;;;;;5009179;28;20103;-76
2022/04/27 00:32:40;;;;;;;10.20;9.02;;;3.90;99.90;;;;;;5028148;28;20041;-76
2022/04/27 00:35:08;;;;;;;10.43;8.77;;;4.00;99.90;;;;;;5025765;28;22041;-76
2022/04/27 00:37:34;;;;;;;11.93;9.43;;;4.00;99.90;;;;;;5003949;28;20691;-76
2022/04/27 00:39:59;;;;;;;10.55;9.50;;;4.00;99.90;;;;;;5008336;28;20077;-76
2022/04/27 00:42:25;;;;;;;11.13;9.30;;;4.00;99.90;;;;;;5008140;28;20047;-76
2022/04/27 00:44:51;;;;;;;9.60;8.70;;;4.10;99.90;;;;;;5009222;28;20452;-76
2022/04/27 00:47:17;;;;;;;9.40;8.60;;;4.10;99.90;;;;;;5003779;28;20042;-76
2022/04/27 00:49:50;;;;;;;10.48;8.10;;;4.10;99.90;;;;;;5007043;28;20029;-76
2022/04/27 00:52:16;;;;;;;12.10;9.23;;;4.20;99.90;;;;;;5004656;28;20049;-76
2022/04/27 00:54:49;;;;;;;9.23;8.35;;;4.20;99.90;;;;;;5005808;28;20490;-76
2022/04/27 00:57:14;;;;;;;9.55;8.52;;;4.30;99.90;;;;;;5008348;28;20061;-76
2022/04/27 00:59:41;;;;;;;9.35;8.43;;;4.30;99.90;;;;;;5008753;28;20045;-76
2022/04/27 01:02:07;;;;;;;12.07;9.77;;;4.30;99.90;;;;;;5006149;28;20050;-76
2022/04/27 01:04:37;;;;;;;11.90;9.73;;;4.30;99.90;;;;;;5010002;28;20037;-76
2022/04/27 01:07:04;;;;;;;10.48;9.38;;;4.30;99.90;;;;;;5010763;28;20132;-76
2022/04/27 01:09:30;;;;;;;11.77;10.02;;;4.40;99.90;;;;;;5007577;28;20042;-76
2022/04/27 01:11:57;;;;;;;10.85;9.75;;;4.40;99.90;;;;;;5009770;28;20511;-76
2022/04/27 01:14:23;;;;;;;12.82;9.95;;;4.50;99.90;;;;;;5011397;28;20042;-76
2022/04/27 01:16:53;;;;;;;14.95;10.88;;;4.50;99.90;;;;;;5007522;28;20100;-76
2022/04/27 01:19:19;;;;;;;10.40;9.30;;;4.60;99.90;;;;;;5025964;28;20037;-76
2022/04/27 01:21:46;;;;;;;13.52;9.90;;;4.60;99.90;;;;;;5011456;28;20483;-76
2022/04/27 01:24:12;;;;;;;12.38;9.82;;;4.50;99.90;;;;;;5011744;28;20046;-76
2022/04/27 01:26:38;;;;;;;12.88;9.90;;;4.50;99.90;;;;;;4997225;28;20096;-76
2022/04/27 01:29:04;;;;;;;11.35;9.77;;;4.50;99.90;;;;;;5004993;28;20034;-76
2022/04/27 01:31:30;;;;;;;10.13;9.05;;;4.50;99.90;;;;;;5008004;28;20121;-76
2022/04/27 01:33:56;;;;;;;11.63;8.77;;;4.50;99.90;;;;;;5010442;28;20133;-76
2022/04/27 01:36:21;;;;;;;8.70;7.90;;;4.50;99.90;;;;;;5008011;28;21402;-76
2022/04/27 01:38:47;;;;;;;11.25;8.23;;;4.50;99.90;;;;;;5018597;28;20061;-76
2022/04/27 01:41:13;;;;;;;12.00;9.88;;;4.50;99.90;;;;;;5014644;28;20124;-76
2022/04/27 01:43:38;;;;;;;10.50;9.50;;;4.50;99.90;;;;;;5015043;28;20431;-76
2022/04/27 01:46:05;;;;;;;11.45;9.15;;;4.60;99.90;;;;;;5012498;28;20042;-76
2022/04/27 01:48:32;;;;;;;10.23;8.70;;;4.60;99.90;;;;;;5028053;28;20037;-76
2022/04/27 01:50:57;;;;;;;9.88;8.23;;;4.60;99.90;;;;;;5013367;28;20695;-76
2022/04/27 01:56:07;;;;;;;10.48;8.35;;;4.70;99.90;;;;;;5009592;28;20045;-76
2022/04/27 01:58:33;;;;;;;11.27;8.75;;;4.80;99.90;;;;;;5012121;28;20057;-76
2022/04/27 02:00:59;;;;;;;13.43;9.63;;;4.80;99.90;;;;;;5012512;28;20083;-76
2022/04/27 02:03:24;;;;;;;10.95;9.52;;;4.90;99.90;;;;;;5032717;28;20069;-76
2022/04/27 02:05:52;;;;;;;12.55;9.68;;;4.90;99.90;;;;;;4998551;28;20064;-76
2022/04/27 02:08:18;;;;;;;11.10;9.32;;;4.90;99.90;;;;;;5028871;28;20086;-76
2022/04/27 02:10:44;;;;;;;12.45;9.52;;;5.00;99.90;;;;;;5012539;28;20072;-76
2022/04/27 02:13:10;;;;;;;11.52;9.60;;;5.00;99.90;;;;;;5012563;28;20769;-76
2022/04/27 02:15:36;;;;;;;10.00;9.00;;;5.00;99.90;;;;;;5011653;28;20447;-76
2022/04/27 02:18:02;;;;;;;9.88;8.73;;;5.00;99.90;;;;;;5029848;28;20191;-76
2022/04/27 02:20:28;;;;;;;10.75;8.60;;;5.00;99.90;;;;;;5013249;28;20045;-76
2022/04/27 02:22:54;;;;;;;9.70;8.57;;;5.10;99.90;;;;;;5013450;28;20037;-76
2022/04/27 02:25:21;;;;;;;11.40;8.73;;;5.10;99.90;;;;;;5012373;28;20160;-76
2022/04/27 02:27:47;;;;;;;11.45;8.52;;;5.20;99.90;;;;;;5011050;28;20069;-76
2022/04/27 02:30:13;;;;;;;9.82;8.82;;;5.20;99.90;;;;;;4996125;28;20075;-76
2022/04/27 02:32:39;;;;;;;11.30;8.35;;;5.20;99.90;;;;;;5026184;28;20059;-76
2022/04/27 02:35:06;;;;;;;10.55;8.50;;;5.20;99.90;;;;;;5011526;28;20167;-76
2022/04/27 02:37:35;;;;;;;10.88;8.38;;;5.20;99.90;;;;;;5025274;28;20060;-76
2022/04/27 02:40:02;;;;;;;9.35;8.45;;;5.20;99.90;;;;;;5009882;28;20057;-76
2022/04/27 02:42:28;;;;;;;12.48;8.93;;;5.20;99.90;;;;;;5008499;28;20069;-76
2022/04/27 02:44:55;;;;;;;11.23;9.23;;;5.30;99.90;;;;;;5010499;28;20073;-76
2022/04/27 02:47:21;;;;;;;9.98;8.98;;;5.30;99.90;;;;;;5007537;28;20050;-76
2022/04/27 02:52:30;;;;;;;11.10;9.40;;;5.40;99.90;;;;;;5002516;28;20038;-76
2022/04/27 02:54:56;;;;;;;11.90;9.48;;;5.40;99.90;;;;;;5008943;28;20121;-76
2022/04/27 02:57:23;;;;;;;10.63;9.52;;;5.40;99.90;;;;;;5018403;28;20060;-76
2022/04/27 02:59:48;;;;;;;13.85;9.07;;;5.40;99.90;;;;;;5023068;28;20038;-76
2022/04/27 03:02:14;;;;;;;15.02;10.07;;;5.40;99.90;;;;;;5004893;28;20100;-76
2022/04/27 03:04:39;;;;;;;11.18;9.32;;;5.40;99.90;;;;;;5008625;28;20137;-76
2022/04/27 03:07:06;;;;;;;12.48;10.43;;;5.50;99.90;;;;;;5006133;28;20435;-76
2022/04/27 03:09:32;;;;;;;11.38;10.18;;;5.50;99.90;;;;;;5022460;28;20038;-76
2022/04/27 03:11:58;;;;;;;11.30;9.30;;;5.50;99.90;;;;;;5007624;28;20502;-77
2022/04/27 03:14:23;;;;;;;13.15;9.65;;;5.50;99.90;;;;;;5009285;28;20049;-76
2022/04/27 03:16:49;;;;;;;11.50;9.63;;;5.50;99.90;;;;;;5008824;28;20108;-77
2022/04/27 03:19:15;;;;;;;12.63;9.23;;;5.60;99.90;;;;;;5006866;28;20564;-77
2022/04/27 03:21:41;;;;;;;12.68;9.68;;;5.60;99.90;;;;;;5009651;28;20201;-76
2022/04/27 03:24:07;;;;;;;11.57;9.05;;;5.60;99.90;;;;;;5008260;28;20490;-76
2022/04/27 03:26:33;;;;;;;12.02;9.07;;;5.60;99.90;;;;;;5008474;28;20050;-76
2022/04/27 03:28:59;;;;;;;10.05;9.00;;;5.60;99.90;;;;;;5015263;28;20048;-76
2022/04/27 03:31:25;;;;;;;11.98;9.48;;;5.70;99.90;;;;;;5009289;28;20034;-76
2022/04/27 03:33:51;;;;;;;12.73;9.68;;;5.70;99.90;;;;;;5019928;28;20265;-76
2022/04/27 03:36:17;;;;;;;9.20;8.38;;;5.70;99.90;;;;;;5016227;28;20163;-76
2022/04/27 03:38:43;;;;;;;9.82;8.90;;;5.70;99.90;;;;;;5028932;28;20068;-76
2022/04/27 03:41:09;;;;;;;10.15;9.05;;;5.70;99.90;;;;;;5007767;28;20048;-77
2022/04/27 03:43:35;;;;;;;12.35;8.80;;;5.70;99.90;;;;;;4996432;28;20033;-77
2022/04/27 03:46:01;;;;;;;12.15;9.95;;;5.70;99.90;;;;;;5013918;28;20060;-77
2022/04/27 03:48:26;;;;;;;12.95;10.05;;;5.70;99.90;;;;;;5012630;28;20033;-77
2022/04/27 03:53:23;;;;;;;10.77;9.05;;;5.80;99.90;;;;;;5040116;28;20049;-82
2022/04/27 03:55:48;;;;;;;11.05;9.98;;;5.80;99.90;;;;;;5035360;28;20426;-82
2022/04/27 03:58:14;;;;;;;12.18;9.75;;;5.80;99.90;;;;;;5045792;28;20033;-82
2022/04/27 04:00:39;;;;;;;14.55;9.30;;;5.80;99.90;;;;;;5041917;28;20056;-82
2022/04/27 04:03:05;;;;;;;10.70;9.50;;;5.90;99.90;;;;;;5019409;28;20041;-82
2022/04/27 04:05:31;;;;;;;12.07;9.63;;;5.80;99.90;;;;;;5030790;28;20038;-82
2022/04/27 04:07:57;;;;;;;10.32;9.25;;;5.90;99.90;;;;;;5036793;28;20083;-82
2022/04/27 04:10:23;;;;;;;14.93;9.85;;;5.90;99.90;;;;;;5036459;28;20125;-82
2022/04/27 04:12:48;;;;;;;10.68;9.57;;;5.90;99.90;;;;;;5026790;28;20034;-82
2022/04/27 04:15:14;;;;;;;10.23;8.95;;;6.00;99.90;;;;;;5028305;28;20434;-82
2022/04/27 04:17:44;;;;;;;11.00;9.38;;;6.00;99.90;;;;;;5037245;28;20056;-82
2022/04/27 04:20:14;;;;;;;10.70;9.23;;;6.00;99.90;;;;;;5029672;28;20048;-82
2022/04/27 04:22:41;;;;;;;10.88;9.60;;;6.00;99.90;;;;;;5038916;28;20045;-82
2022/04/27 04:30:36;;;;;;;11.02;9.90;;;6.10;99.90;;;;;;5035323;28;20041;-82
2022/04/27 04:33:01;;;;;;;11.85;9.88;;;6.10;99.90;;;;;;5037361;28;20029;-82
2022/04/27 04:35:27;;;;;;;13.15;10.32;;;6.10;99.90;;;;;;5028336;28;20045;-82
2022/04/27 04:37:53;;;;;;;12.27;9.60;;;6.20;99.90;;;;;;5040281;28;20407;-82
2022/04/27 04:40:19;;;;;;;13.70;10.52;;;6.20;99.90;;;;;;5033877;28;20048;-82
2022/04/27 04:42:44;;;;;;;11.63;9.85;;;6.20;99.90;;;;;;5054530;28;20037;-82
2022/04/27 04:45:10;;;;;;;23.88;10.57;;;6.20;99.90;;;;;;5042455;28;20068;-82
2022/04/27 04:47:35;;;;;;;12.98;9.95;;;6.30;99.90;;;;;;5033329;28;20037;-83
2022/04/27 04:50:01;;;;;;;11.38;9.88;;;6.20;99.90;;;;;;5033930;28;20119;-83
2022/04/27 04:52:27;;;;;;;12.18;10.65;;;6.30;99.90;;;;;;5029756;28;20092;-83
2022/04/27 04:54:53;;;;;;;11.02;9.88;;;6.30;99.90;;;;;;5032489;28;20104;-82
2022/04/27 04:57:18;;;;;;;12.85;10.65;;;6.30;99.90;;;;;;5047121;28;20080;-82
2022/04/27 04:59:44;;;;;;;11.65;10.43;;;6.30;99.90;;;;;;5036608;28;20052;-82
2022/04/27 05:02:09;;;;;;;11.32;10.15;;;6.40;99.90;;;;;;5038500;28;20045;-81
2022/04/27 05:04:35;;;;;;;10.77;9.68;;;6.40;99.90;;;;;;5032279;28;20045;-83
2022/04/27 05:07:00;;;;;;;12.43;9.85;;;6.40;99.90;;;;;;5023217;28;20411;-82
2022/04/27 05:09:26;;;;;;;14.35;10.88;;;6.40;99.90;;;;;;5032892;28;20387;-82
2022/04/27 05:11:51;;;;;;;16.08;10.75;;;6.50;99.90;;;;;;5035811;28;20042;-81
2022/04/27 05:14:17;;;;;;;15.10;10.75;;;6.50;99.90;;;;;;5031909;28;20128;-83
2022/04/27 05:16:42;;;;;;;12.02;10.75;;;6.60;99.90;;;;;;5048507;28;20065;-82
2022/04/27 05:19:08;;;;;;;11.05;9.80;;;6.60;99.90;;;;;;5036183;28;20049;-82
2022/04/27 05:21:34;;;;;;;12.73;10.10;;;6.60;99.90;;;;;;5033663;28;20045;-82
2022/04/27 05:23:59;;;;;;;14.35;10.52;;;6.60;99.90;;;;;;5034182;28;20124;-83
2022/04/27 05:26:25;;;;;;;15.48;10.98;;;6.70;99.90;;;;;;5032695;28;20061;-82
2022/04/27 05:34:18;;;;;;;15.30;11.00;;;6.80;99.90;;;;;;5031940;28;20053;-82
2022/04/27 05:36:44;;;;;;;12.95;10.18;;;6.80;99.90;;;;;;5035056;28;20041;-82
2022/04/27 05:39:09;;;;;;;13.88;10.52;;;6.80;99.90;;;;;;5036046;28;20044;-82
2022/04/27 05:41:35;;;;;;;13.85;10.70;;;6.90;99.90;;;;;;5048751;28;20041;-82
2022/04/27 05:44:06;;;;;;;13.65;11.07;;;7.00;99.90;;;;;;5016438;28;20120;-82
2022/04/27 05:46:33;;;;;;;13.27;10.70;;;7.00;99.90;;;;;;5049947;28;20080;-82
2022/04/27 05:48:59;;;;;;;12.57;11.32;;;7.00;99.90;;;;;;5031857;28;20109;-82
2022/04/27 05:51:24;;;;;;;13.75;11.73;;;7.10;99.90;;;;;;5032884;28;20451;-82
2022/04/27 05:53:50;;;;;;;12.60;11.45;;;7.20;99.90;;;;;;5026844;28;20587;-82
2022/04/27 05:56:18;;;;;;;27.27;12.93;;;7.20;99.90;;;;;;5039401;28;20072;-83
2022/04/27 05:58:44;;;;;;;12.18;10.98;;;7.40;99.90;;;;;;5056876;28;20521;-82
2022/04/27 06:01:11;;;;;;;15.77;11.10;;;7.50;99.90;;;;;;5012704;28;20068;-82
2022/04/27 06:03:37;;;;;;;13.40;11.27;;;7.50;99.90;;;;;;5049812;28;20352;-83
2022/04/27 06:06:03;;;;;;;13.00;11.38;;;7.60;99.90;;;;;;5048726;28;20248;-82
2022/04/27 06:08:28;;;;;;;12.70;10.43;;;7.60;99.90;;;;;;5040783;28;20036;-82
2022/04/27 06:10:54;;;;;;;11.68;10.48;;;7.70;99.90;;;;;;5056155;28;20086;-82
2022/04/27 06:13:19;;;;;;;10.80;9.68;;;7.80;99.90;;;;;;5038558;28;20037;-82
2022/04/27 06:15:45;;;;;;;11.88;10.35;;;7.80;99.90;;;;;;5033825;28;20045;-81
2022/04/27 06:18:10;;;;;;;12.13;9.52;;;7.90;99.90;;;;;;5032028;28;20041;-81
2022/04/27 06:20:36;;;;;;;11.57;9.70;;;8.00;99.90;;;;;;5032731;28;20041;-82
2022/04/27 06:23:01;;;;;;;10.00;9.02;;;8.10;99.90;;;;;;5026344;28;20095;-81
2022/04/27 06:25:27;;;;;;;10.38;8.45;;;8.10;99.90;;;;;;5032332;28;20037;-83
2022/04/27 06:27:53;;;;;;;11.48;9.43;;;8.20;99.90;;;;;;5032473;28;20765;-83
2022/04/27 06:30:18;;;;;;;12.07;9.60;;;8.30;99.90;;;;;;5050945;28;20037;-81
2022/04/27 06:32:44;;;;;;;10.48;9.32;;;8.40;99.90;;;;;;5041555;28;20092;-82
2022/04/27 06:35:13;;;;;;;11.32;8.73;;;8.50;99.90;;;;;;5032824;28;20454;-81
2022/04/27 06:37:39;;;;;;;9.73;8.55;;;8.50;99.90;;;;;;5046305;28;20429;-81
2022/04/27 06:40:05;;;;;;;10.63;9.40;;;8.60;99.90;;;;;;5020460;28;20094;-81
2022/04/27 06:42:31;;;;;;;13.13;10.00;;;8.80;99.90;;;;;;5044934;28;20041;-81
2022/04/27 06:45:03;;;;;;;9.60;8.70;;;8.80;99.90;;;;;;5016520;28;20041;-82
2022/04/27 06:47:29;;;;;;;11.48;9.77;;;8.90;99.90;;;;;;5034475;28;20034;-81
2022/04/27 06:49:54;;;;;;;9.82;8.82;;;9.00;99.90;;;;;;5030719;28;20083;-81
2022/04/27 06:52:20;;;;;;;9.77;7.55;;;9.00;99.90;;;;;;5020358;28;20069;-82
2022/04/27 06:54:46;;;;;;;10.00;7.60;;;9.10;99.90;;;;;;5040143;28;20060;-81
2022/04/27 06:57:11;;;;;;;8.18;7.22;;;9.20;99.90;;;;;;5038869;28;20459;-81
2022/04/27 06:59:37;;;;;;;8.15;7.35;;;9.20;99.90;;;;;;5032432;28;20037;-82
2022/04/27 07:02:04;;;;;;;7.90;6.72;;;9.30;99.90;;;;;;5032248;28;20471;-82
2022/04/27 07:04:34;;;;;;;8.45;6.47;;;9.40;99.90;;;;;;5046224;28;20053;-82
2022/04/27 07:07:01;;;;;;;6.60;6.00;;;;;;;;;;5041681;28;20048;-82
2022/04/27 07:09:26;;;;;;;6.15;5.28;;;9.50;99.90;;;;;;5031765;28;20042;-82
2022/04/27 07:11:52;;;;;;;6.20;5.45;;;9.60;99.90;;;;;;5032291;28;20399;-82
2022/04/27 07:14:19;;;;;;;7.35;5.00;;;9.70;99.90;;;;;;5043946;28;20041;-82
2022/04/27 07:16:45;;;;;;;7.50;4.88;;;9.80;99.90;;;;;;5032113;28;20037;-81
2022/04/27 07:19:11;;;;;;;5.80;4.47;;;9.90;99.90;;;;;;5061664;28;20076;-81
2022/04/27 07:21:37;;;;;;;5.18;2.78;;;10.00;99.90;;;;;;5029716;28;20045;-82
2022/04/27 07:24:02;;;;;;;4.45;2.90;;;10.10;99.90;;;;;;5031747;28;20099;-82
2022/04/27 07:26:31;;;;;;;5.60;2.30;;;10.10;99.90;;;;;;5030500;28;20112;-82
2022/04/27 07:28:57;;;;;;;3.33;1.80;;;10.20;99.90;;;;;;5036817;28;20044;-82
2022/04/27 07:31:23;;;;;;;2.53;1.85;;;10.30;99.90;;;;;;5048007;28;20070;-81
2022/04/27 07:33:49;;;;;;;3.10;1.88;;;10.40;99.90;;;;;;5033482;28;20043;-81
2022/04/27 07:36:15;;;;;;;3.95;2.10;;;10.40;99.90;;;;;;5025141;28;20064;-81
2022/04/27 07:38:40;;;;;;;4.95;1.77;;;10.50;99.90;;;;;;5041539;28;20096;-82
2022/04/27 07:41:07;;;;;;;2.47;1.70;;;10.50;99.90;;;;;;5046670;28;20042;-81
2022/04/27 07:43:33;;;;;;;4.07;2.05;;;10.60;99.90;;;;;;5031812;28;20052;-82
2022/04/27 07:45:59;;;;;;;5.72;2.08;;;10.70;99.90;;;;;;5033304;28;20475;-82
2022/04/27 07:48:24;;;;;;;5.78;1.90;;;10.80;99.90;;;;;;5030387;28;20043;-82
2022/04/27 07:50:50;;;;;;;3.00;1.70;;;10.80;99.80;;;;;;5031572;28;20037;-82
2022/04/27 07:53:16;;;;;;;2.88;1.67;;;10.90;99.90;;;;;;5027380;28;20049;-82
2022/04/27 07:55:42;;;;;;;3.53;2.20;;;10.90;99.90;;;;;;5049117;28;20048;-83
2022/04/27 07:58:07;;;;;;;2.13;1.73;;;10.90;99.90;;;;;;5029640;28;20451;-83
2022/04/27 08:00:33;;;;;;;5.68;1.60;;;11.00;99.90;;;;;;5029917;28;20037;-82
2022/04/27 08:02:58;;;;;;;3.45;1.98;;;11.00;98.70;;;;;;5058377;28;20041;-83
2022/04/27 08:05:24;;;;;;;3.58;1.85;;;11.00;98.30;;;;;;5042237;28;20570;-83
2022/04/27 08:07:50;;;;;;;3.38;1.85;;;11.10;98.10;;;;;;5051769;28;20052;-82
2022/04/27 08:10:18;;;;;;;2.80;1.92;;;11.20;98.40;;;;;;5032487;28;20041;-82
2022/04/27 08:12:47;;;;;;;6.40;2.20;;;11.20;98.10;;;;;;5043836;28;20068;-83
2022/04/27 08:15:21;;;;;;;4.75;1.90;;;11.30;98.90;;;;;;5047150;28;20037;-83
2022/04/27 08:18:03;;;;;;;2.08;1.60;;;11.40;98.50;;;;;;5014564;28;20037;-83
2022/04/27 08:23:16;;;;;;;2.10;1.85;;;11.60;97.00;;;;;;5030594;28;20053;-82
2022/04/27 08:25:42;;;;;;;3.80;1.60;;;11.60;96.90;;;;;;5038776;28;20418;-81
2022/04/27 08:28:08;;;;;;;2.58;1.60;;;11.70;97.00;;;;;;5016551;28;20075;-81
2022/04/27 08:30:39;;;;;;;4.95;2.25;;;11.70;95.20;;;;;;5026744;28;20065;-82
2022/04/27 08:33:06;;;;;;;5.43;1.58;;;11.90;97.00;;;;;;5047323;28;20095;-82
2022/04/27 08:35:34;;;;;;;4.38;2.22;;;12.00;97.20;;;;;;5050307;28;20033;-82
2022/04/27 08:38:04;;;;;;;3.90;1.70;;;12.10;93.70;;;;;;5033597;28;20048;-82
2022/04/27 08:40:30;;;;;;;3.17;1.52;;;12.20;96.60;;;;;;5030576;28;20038;-82
2022/04/27 08:42:57;;;;;;;4.13;1.98;;;12.20;96.40;;;;;;5030990;28;20171;-82
2022/04/27 08:45:23;;;;;;;5.32;1.50;;;12.20;94.90;;;;;;5021445;28;20052;-82
2022/04/27 08:47:50;;;;;;;2.83;1.80;;;12.30;88.70;;;;;;5046265;28;20037;-82
2022/04/27 08:50:21;;;;;;;4.43;1.70;;;12.00;87.90;;;;;;5028365;28;20544;-82
2022/04/27 08:52:47;;;;;;;5.15;1.90;;;12.20;92.50;;;;;;5021854;28;20056;-82
2022/04/27 08:55:14;;;;;;;2.15;1.58;;;12.10;86.50;;;;;;5041559;28;20407;-82
2022/04/27 08:57:41;;;;;;;10.50;2.10;;;11.90;87.30;;;;;;5029945;28;20049;-83
2022/04/27 09:00:09;;;;;;;4.07;1.70;;;12.00;91.20;;;;;;5037860;28;20042;-82
2022/04/27 09:02:35;;;;;;;4.05;1.80;;;12.10;93.30;;;;;;5042010;28;20175;-82
2022/04/27 09:05:17;;;;;;;2.75;1.55;;;12.30;94.50;;;;;;5052028;28;20128;-81
2022/04/27 09:07:50;;;;;;;4.03;1.77;;;12.40;93.60;;;;;;5048680;28;20037;-82
2022/04/27 09:10:21;;;;;;;3.63;1.50;;;12.50;94.20;;;;;;5049004;28;20041;-82
2022/04/27 09:12:51;;;;;;;2.17;1.30;;;;;;;;;;5042347;28;20072;-81
2022/04/27 09:15:24;;;;;;;3.30;1.70;;;12.60;92.70;;;;;;5026858;28;20756;-82
2022/04/27 09:20:50;;;;;;;4.50;1.67;;;12.70;93.10;;;;;;5042219;28;20053;-82
2022/04/27 09:23:23;;;;;;;2.65;1.85;;;12.80;93.20;;;;;;5016697;28;20081;-82
2022/04/27 09:25:55;;;;;;;4.00;1.80;;;12.80;91.90;;;;;;5031426;28;20144;-82
2022/04/27 09:28:39;;;;;;;5.88;1.73;;;12.90;92.90;;;;;;5030763;28;20364;-82
2022/04/27 09:31:04;;;;;;;7.78;2.40;;;12.80;90.40;;;;;;5045146;28;20055;-83
2022/04/27 09:33:38;;;;;;;4.60;2.50;;;12.70;91.10;;;;;;5047900;28;20120;-82
2022/04/27 09:36:23;;;;;;;3.05;2.15;;;12.80;92.40;;;;;;5042665;28;20491;-83
2022/04/27 09:38:53;;;;;;;3.60;1.95;;;12.80;93.10;;;;;;5039564;28;20089;-83
2022/04/27 09:41:39;;;;;;;7.25;2.42;;;12.80;91.10;;;;;;5035458;28;20048;-82
2022/04/27 09:44:05;;;;;;;5.13;2.30;;;12.40;87.90;;;;;;5048240;28;20064;-83
2022/04/27 09:46:31;;;;;;;2.80;2.17;;;12.60;91.90;;;;;;5048802;28;20383;-82
2022/04/27 09:49:09;;;;;;;6.95;1.95;;;12.70;92.80;;;;;;5047368;28;20087;-82
2022/04/27 09:51:55;;;;;;;5.57;1.90;;;12.80;90.20;;;;;;5037070;28;20575;-83
2022/04/27 09:54:25;;;;;;;5.55;2.00;;;12.80;90.60;;;;;;5030968;28;20072;-83
2022/04/27 09:56:57;;;;;;;4.20;1.50;;;12.80;90.40;;;;;;5025587;28;20041;-82
2022/04/27 09:59:30;;;;;;;5.82;1.95;;;12.80;90.90;;;;;;5047898;28;20049;-82
2022/04/27 10:02:04;;;;;;;5.30;2.00;;;12.40;87.80;;;;;;5056481;28;20124;-82
2022/04/27 10:04:30;;;;;;;4.95;2.20;;;12.60;91.00;;;;;;5045211;28;20041;-83
2022/04/27 10:07:04;;;;;;;23.25;3.63;;;12.70;90.20;;;;;;5036223;28;20128;-82
2022/04/27 10:09:30;;;;;;;8.15;2.65;;;12.70;84.50;;;;;;5046224;28;20037;-82
2022/04/27 10:11:58;;;;;;;3.72;2.17;;;12.40;87.90;;;;;;5031946;28;20044;-82
2022/04/27 10:14:25;;;;;;;4.80;2.17;;;12.60;90.50;;;;;;5015113;28;20047;-83
2022/04/27 10:16:51;;;;;;;5.90;2.10;;;12.80;91.50;;;;;;5034008;28;20050;-83
2022/04/27 10:19:18;;;;;;;4.75;2.03;;;12.70;88.60;;;;;;5049843;28;20048;-83
2022/04/27 10:21:58;;;;;;;8.23;2.15;;;12.90;91.10;;;;;;5032038;28;20049;-83
2022/04/27 10:24:42;;;;;;;4.97;1.95;;;12.90;88.80;;;;;;5045972;28;20121;-83
2022/04/27 10:27:19;;;;;;;4.82;2.60;;;12.60;87.10;;;;;;5054273;28;20041;-83
2022/04/27 10:30:07;;;;;;;7.18;2.75;;;12.90;90.60;;;;;;5027547;28;20035;-83
2022/04/27 10:32:36;;;;;;;3.97;2.47;;;13.10;89.60;;;;;;5045735;28;20041;-82
2022/04/27 10:35:14;;;;;;;5.40;2.30;;;;;;;;;;5027764;28;20045;-82
2022/04/27 10:37:57;;;;;;;8.60;3.10;;;13.40;86.60;;;;;;5040428;28;20052;-82
2022/04/27 10:40:42;;;;;;;4.93;2.28;;;13.50;87.50;;;;;;5028697;28;20040;-82
2022/04/27 10:43:07;;;;;;;6.90;3.03;;;13.60;90.10;;;;;;5007425;28;20033;-83
2022/04/27 10:45:38;;;;;;;5.20;2.30;;;13.60;90.30;;;;;;5027811;28;20434;-82
2022/04/27 10:48:14;;;;;;;6.13;2.53;;;13.70;90.40;;;;;;5028823;28;20041;-82
2022/04/27 10:50:39;;;;;;;5.80;2.83;;;13.80;90.40;;;;;;5040982;28;20547;-81
2022/04/27 10:53:16;;;;;;;7.13;2.40;;;13.70;88.50;;;;;;5030868;28;20137;-82
2022/04/27 10:55:51;;;;;;;4.47;2.67;;;13.80;87.10;;;;;;5026436;28;20033;-82
2022/04/27 10:58:22;;;;;;;5.32;2.65;;;13.90;89.80;;;;;;5028764;28;20559;-82
2022/04/27 11:01:03;;;;;;;7.50;3.08;;;14.00;88.20;;;;;;5040188;28;20072;-82
2022/04/27 11:03:36;;;;;;;8.50;3.22;;;13.70;87.40;;;;;;5015417;28;20054;-82
2022/04/27 11:06:08;;;;;;;7.72;2.72;;;13.80;89.20;;;;;;5015707;28;20120;-82
2022/04/27 11:09:02;;;;;;;6.50;2.65;;;13.20;90.40;;;;;;5013744;28;20073;-82
2022/04/27 11:11:29;;;;;;;6.50;2.70;;;13.60;90.70;;;;;;5030450;28;20041;-82
2022/04/27 11:14:00;;;;;;;8.02;3.35;;;13.30;90.90;;;;;;5031672;28;20124;-81
2022/04/27 11:16:26;;;;;;;8.68;3.03;;;13.30;90.20;;;;;;5030560;28;20045;-81
2022/04/27 11:18:56;;;;;;;5.80;2.65;;;13.30;91.20;;;;;;5027886;28;20525;-82
2022/04/27 11:21:24;;;;;;;6.38;2.50;;;13.40;91.00;;;;;;5055159;28;20091;-82
2022/04/27 11:23:50;;;;;;;8.50;2.88;;;13.50;91.00;;;;;;5043013;28;20547;-81
2022/04/27 11:26:16;;;;;;;6.43;2.58;;;13.50;90.60;;;;;;5025699;28;20120;-82
2022/04/27 11:28:46;;;;;;;6.95;2.90;;;13.50;91.30;;;;;;5032109;28;20034;-81
2022/04/27 11:31:13;;;;;;;9.18;2.63;;;13.70;91.30;;;;;;5038700;28;20063;-81
2022/04/27 11:33:40;;;;;;;6.82;2.70;;;13.80;90.90;;;;;;5030774;28;20045;-81
2022/04/27 11:36:26;;;;;;;10.68;2.65;;;13.70;91.10;;;;;;5027881;28;20055;-81
2022/04/27 11:38:53;;;;;;;7.25;2.25;;;13.70;90.60;;;;;;5014509;28;20459;-81
2022/04/27 11:41:23;;;;;;;7.25;2.25;;;13.40;90.80;;;;;;5033522;28;20471;-81
2022/04/27 11:43:56;;;;;;;8.32;2.83;;;13.40;91.60;;;;;;5034912;28;20372;-81
2022/04/27 11:46:21;;;;;;;9.93;3.28;;;13.50;91.20;;;;;;5045897;28;20084;-81
2022/04/27 11:48:48;;;;;;;8.98;2.70;;;12.80;91.30;;;;;;5013672;28;20041;-80
2022/04/27 11:51:15;;;;;;;9.35;2.90;;;12.80;92.40;;;;;;5013256;28;20553;-81
2022/04/27 11:53:47;;;;;;;9.30;2.45;;;13.10;92.60;;;;;;5022505;28;20402;-80
2022/04/27 11:56:13;;;;;;;11.07;2.58;;;13.30;92.60;;;;;;5030994;28;20037;-82
2022/04/27 11:58:39;;;;;;;9.38;3.20;;;13.40;92.20;;;;;;5047411;28;20475;-82
2022/04/27 12:01:05;;;;;;;10.02;3.45;;;13.10;92.20;;;;;;5028112;28;20037;-82
2022/04/27 12:03:38;;;;;;;8.15;2.78;;;12.90;93.10;;;;;;5046884;28;20073;-81
2022/04/27 12:06:05;;;;;;;10.30;2.55;;;13.20;92.00;;;;;;5039351;28;20099;-81
2022/04/27 12:08:31;;;;;;;8.55;2.75;;;13.10;93.20;;;;;;5042279;28;20116;-82
2022/04/27 12:10:56;;;;;;;7.65;2.85;;;13.40;92.60;;;;;;5044231;28;20079;-81
2022/04/27 12:13:23;;;;;;;7.53;2.20;;;13.40;92.10;;;;;;5038662;28;20029;-82
2022/04/27 12:15:54;;;;;;;10.07;2.50;;;13.70;92.20;;;;;;5028013;28;20045;-82
2022/04/27 12:18:27;;;;;;;11.20;2.30;;;13.70;91.80;;;;;;5007706;28;20092;-82
2022/04/27 12:20:55;;;;;;;11.57;2.63;;;14.00;91.40;;;;;;5025746;28;20040;-82
2022/04/27 12:23:26;;;;;;;9.13;2.75;;;14.10;90.70;;;;;;5008804;28;20129;-81
2022/04/27 12:25:55;;;;;;;11.05;2.90;;;13.40;91.50;;;;;;5021720;28;20053;-82
2022/04/27 12:28:29;;;;;;;9.23;3.53;;;13.60;91.50;;;;;;5027939;28;20088;-82
2022/04/27 12:30:58;;;;;;;8.25;3.00;;;13.10;92.60;;;;;;5028587;28;20053;-82
2022/04/27 12:33:32;;;;;;;8.55;2.75;;;12.80;92.80;;;;;;5042396;28;20026;-81
2022/04/27 12:39:05;;;;;;;10.15;2.63;;;13.10;93.70;;;;;;5034162;28;20128;-81
2022/04/27 12:41:47;;;;;;;7.50;2.67;;;13.40;93.40;;;;;;5038705;28;20065;-81
2022/04/27 12:44:14;;;;;;;7.97;2.47;;;13.10;92.40;;;;;;5028242;28;20045;-81
2022/04/27 12:46:56;;;;;;;6.93;2.47;;;13.00;93.00;;;;;;5046153;28;20083;-81
2022/04/27 12:49:29;;;;;;;5.67;2.70;;;13.30;92.70;;;;;;5044637;28;20452;-81
2022/04/27 12:52:12;;;;;;;8.52;2.67;;;13.50;92.60;;;;;;5044271;28;20308;-81
2022/04/27 12:54:37;;;;;;;9.10;2.88;;;13.50;92.00;;;;;;5011927;28;20128;-81
2022/04/27 12:57:03;;;;;;;10.10;2.78;;;13.30;91.70;;;;;;5028210;28;20120;-81
2022/04/27 12:59:29;;;;;;;9.73;2.67;;;13.20;91.70;;;;;;5019501;28;20468;-81
2022/04/27 13:02:04;;;;;;;5.90;2.42;;;13.60;92.10;;;;;;5047331;28;20103;-82
2022/04/27 13:04:31;;;;;;;7.00;2.30;;;13.90;91.70;;;;;;5031107;28;20076;-80
2022/04/27 13:06:57;;;;;;;6.68;2.60;;;13.90;90.40;;;;;;5012026;28;20037;-81
2022/04/27 13:12:07;;;;;;;5.25;2.22;;;13.90;90.50;;;;;;5031927;28;20041;-81
2022/04/27 13:14:33;;;;;;;6.45;2.47;;;13.90;91.00;;;;;;5032772;28;20132;-81
2022/04/27 13:16:58;;;;;;;5.30;2.05;;;14.30;91.00;;;;;;5031055;28;20125;-81
2022/04/27 13:19:24;;;;;;;5.93;2.55;;;;;;;;;;5040634;28;20090;-81
2022/04/27 13:21:51;;;;;;;7.50;2.20;;;14.60;85.60;;;;;;5045937;28;20050;-81